• Join FlightAware (Why Join?)
  • Login
  • US Flag 
10:26PM EDT


 

Airport Tracker/Info


-or-


 

Live Flight TrackerFlight Track Log ✈ EJA951 ✈ 16-Jul-2013 ✈ KOKC - KMDW

Flight Track Log - Related Links

Times and Time Zones

All times are in EDT time to prevent confusion due to time zone crossing. See the EJA951 flight status page for this flight to view local times or setup timezone preferences in your user account.

Time Position Orientation Groundspeed Altitude Reporting Facility
EDT Latitude Longitude Course Direction KTS MPH feet Rate Location/Type
07:43PM 35.3789 -97.6122 233° Southwest 159 183 2,200  Level Fort Worth Center
07:44PM 35.3433 -97.6706 233° Southwest 210 242 5,900 3,420 Climbing Fort Worth Center
07:45PM 35.3017 -97.7036 213° Southwest 203 234 9,100 2,820 Climbing Fort Worth Center
07:46PM 35.2536 -97.6575 142° Southeast 229 264 11,700 2,700 Climbing Fort Worth Center
07:47PM 35.2433 -97.5761 99° East 256 295 14,600 1,620 Climbing Fort Worth Center
07:48PM 35.2769 -97.4872 65° Northeast 315 362 15,000 180 Climbing Fort Worth Center
07:51PM 35.3842 -97.2364 62° Northeast 376 433 15,300 600 Climbing Kansas City Center
07:52PM 35.4336 -97.1222 62° Northeast 384 442 17,200 1,680 Climbing Kansas City Center
07:53PM 35.4831 -97.0061 62° Northeast 386 444 18,800 1,860 Climbing Kansas City Center
07:54PM 35.5525 -96.8717 58° Northeast 389 448 21,000 1,740 Climbing Kansas City Center
07:55PM 35.6200 -96.7631 53° Northeast 395 455 22,500 1,380 Climbing Kansas City Center
07:56PM 35.6875 -96.6492 54° Northeast 403 464 24,000 1,440 Climbing Kansas City Center
07:57PM 35.7564 -96.5331 54° Northeast 413 475 25,500 1,440 Climbing Kansas City Center
07:58PM 35.8239 -96.4200 54° Northeast 414 476 27,000 1,380 Climbing Kansas City Center
07:59PM 35.8906 -96.3114 53° Northeast 406 467 28,400 1,500 Climbing Kansas City Center
08:00PM 35.9706 -96.1739 54° Northeast 408 470 30,100 1,440 Climbing Kansas City Center
08:01PM 36.0417 -96.0517 54° Northeast 432 497 31,400 1,260 Climbing Kansas City Center
08:02PM 36.1156 -95.9256 54° Northeast 453 521 32,700 1,260 Climbing Kansas City Center
08:03PM 36.1914 -95.7947 54° Northeast 465 535 34,000 1,200 Climbing Kansas City Center
08:04PM 36.2600 -95.6567 58° Northeast 476 548 35,300 1,200 Climbing Kansas City Center
08:05PM 36.3294 -95.5122 59° Northeast 485 558 36,600 1,080 Climbing Kansas City Center
08:06PM 36.4000 -95.3619 60° Northeast 495 570 37,600 1,140 Climbing Kansas City Center
08:07PM 36.4725 -95.2133 59° Northeast 502 578 39,000 1,440 Climbing Kansas City Center
08:08PM 36.5539 -95.0444 59° Northeast 503 579 40,600 960 Climbing Kansas City Center
08:09PM 36.6242 -94.8967 59° Northeast 501 577 41,000 180 Climbing Kansas City Center
08:10PM 36.6947 -94.7464 60° Northeast 501 577 41,000  Level Kansas City Center
08:11PM 36.7658 -94.5956 59° Northeast 503 579 41,000  Level Kansas City Center
08:12PM 36.8547 -94.4169 58° Northeast 505 581 41,000  Level Kansas City Center
08:13PM 36.9664 -94.3136 36° Northeast 499 574 41,000  Level Kansas City Center
08:14PM 37.0769 -94.2069 38° Northeast 500 575 41,000  Level Kansas City Center
08:15PM 37.1872 -94.0983 38° Northeast 504 580 41,000  Level Kansas City Center
08:16PM 37.3081 -93.9783 38° Northeast 507 583 41,000  Level Kansas City Center
08:18PM 37.4194 -93.8678 38° Northeast 509 586 41,000  Level Kansas City Center
08:19PM 37.5300 -93.7575 38° Northeast 507 583 41,000  Level Kansas City Center
08:20PM 37.6403 -93.6469 38° Northeast 505 581 41,000  Level Kansas City Center
08:21PM 37.7489 -93.5372 39° Northeast 502 578 41,000  Level Kansas City Center
08:22PM 37.8592 -93.4264 38° Northeast 501 577 41,000  Level Kansas City Center
08:23PM 37.9681 -93.3158 39° Northeast 500 575 41,000  Level Kansas City Center
08:24PM 38.0764 -93.2064 38° Northeast 497 572 41,000  Level Kansas City Center
08:25PM 38.1853 -93.0950 39° Northeast 497 572 41,000  Level Kansas City Center
08:26PM 38.2958 -92.9828 39° Northeast 501 577 41,000  Level Kansas City Center
08:27PM 38.4247 -92.8500 39° Northeast 495 570 41,000  Level Kansas City Center
08:28PM 38.5314 -92.7372 40° Northeast 493 567 41,000  Level Kansas City Center
08:29PM 38.6392 -92.6256 39° Northeast 494 568 41,000  Level Kansas City Center
08:30PM 38.7475 -92.5128 39° Northeast 496 571 41,000  Level Kansas City Center
08:31PM 38.8558 -92.4003 39° Northeast 497 572 41,000  Level Kansas City Center
08:32PM 38.9636 -92.2858 40° Northeast 497 572 41,000  Level Kansas City Center
08:33PM 39.0719 -92.1708 39° Northeast 501 577 41,000  Level Kansas City Center
08:34PM 39.1669 -92.0397 47° Northeast 506 582 41,000  Level Kansas City Center
08:35PM 39.2442 -91.8994 55° Northeast 504 580 41,000 -180 Level Kansas City Center
08:36PM 39.3433 -91.7297 53° Northeast 502 578 40,700 -900 Descending Kansas City Center
08:37PM 39.4367 -91.5886 49° Northeast 504 580 39,200 -1,680 Descending Kansas City Center
08:38PM 39.5311 -91.4569 47° Northeast 514 592 37,300 -2,040 Descending Kansas City Center
08:39PM 39.6328 -91.3142 47° Northeast 515 593 35,100 -1,620 Descending Kansas City Center
08:40PM 39.7300 -91.1767 47° Northeast 516 594 34,100 -1,620 Descending Kansas City Center
08:41PM 39.8356 -91.0253 48° Northeast 512 589 31,900 -1,560 Descending Kansas City Center
08:42PM 39.9244 -90.9000 47° Northeast 517 595 31,000 -480 Descending Kansas City Center
08:43PM 40.0217 -90.7586 48° Northeast 521 600 31,000  Level Kansas City Center
08:44PM 40.1197 -90.6167 48° Northeast 525 604 31,000  Level Kansas City Center
08:45PM 40.2178 -90.4742 48° Northeast 526 605 31,000  Level Kansas City Center
08:46PM 40.3358 -90.3022 48° Northeast 528 608 31,000 -840 Level Kansas City Center
08:47PM 40.4342 -90.1575 48° Northeast 530 610 29,300 -1,800 Descending Kansas City Center
08:48PM 40.5328 -90.0119 48° Northeast 526 605 27,400 -1,740 Descending Kansas City Center
08:49PM 40.6281 -89.9047 40° Northeast 450 518 25,900 -1,440 Descending Kansas City Center
08:50PM 40.6992 -89.7900 51° Northeast 426 490 24,400 -2,100 Descending Kansas City Center
08:51PM 40.7494 -89.6644 62° Northeast 401 461 21,600 -2,880 Descending Kansas City Center
08:52PM 40.8044 -89.5294 62° Northeast 382 440 18,600 -2,040 Descending Kansas City Center
08:54PM 40.8806 -89.4075 50° Northeast 364 419 17,000 -720 Descending Chicago Center
08:55PM 40.9447 -89.3050 50° Northeast 361 415 17,000 -360 Level Chicago Center
08:56PM 41.0189 -89.1861 50° Northeast 393 452 16,300 -1,260 Descending Chicago Center
08:57PM 41.0994 -89.0550 51° Northeast 386 444 14,500 -1,560 Descending Chicago Center
08:58PM 41.1650 -88.9483 51° Northeast 376 433 13,100 -1,440 Descending Chicago Center
08:59PM 41.2264 -88.8478 51° Northeast 359 413 11,600 -1,500 Descending Chicago Center
09:00PM 41.2814 -88.7553 52° Northeast 326 375 10,100 -1,380 Descending Chicago Center
09:01PM 41.3322 -88.6725 51° Northeast 293 337 8,800 -1,260 Descending Chicago Center
09:02PM 41.3789 -88.5942 52° Northeast 274 315 7,500 -1,380 Descending Chicago Center
09:03PM 41.4383 -88.4972 51° Northeast 283 326 6,000 -780 Descending Chicago Center
09:04PM 41.4833 -88.4122 55° Northeast 284 327 6,000  Level Chicago Center
09:05PM 41.5114 -88.3158 69° East 281 323 6,000 -480 Level Chicago Center
09:06PM 41.5403 -88.2217 68° East 277 319 5,000 -540 Descending Chicago Center
09:07PM 41.5686 -88.1331 67° East 262 302 5,000  Level Chicago Center
09:08PM 41.5789 -88.0489 81° East 240 276 5,000  Level Chicago Center
09:09PM 41.5836 -87.9447 86° East 234 269 5,000  Level Chicago Center
09:10PM 41.5872 -87.8575 87° East 235 270 5,000  Level Chicago Center
09:11PM 41.5914 -87.7697 86° East 236 272 5,000  Level Chicago Center
09:12PM 41.5931 -87.6822 89° East 237 273 5,000  Level Chicago Center
09:13PM 41.5603 -87.6089 121° Southeast 236 272 5,000  Level Chicago Center
09:14PM 41.5383 -87.5342 111° Southeast 234 269 5,000 -240 Level Chicago Center
09:15PM 41.5939 -87.4897 31° Northeast 215 247 4,600 -540 Descending Chicago Center
09:16PM 41.6311 -87.5361 317° Northwest 188 216 4,000 -480 Descending Chicago Center
09:17PM 41.6664 -87.5850 314° West 186 214 3,700 -600 Descending Chicago Center
09:19PM 41.7006 -87.6342 313° West 184 212 2,800 -840 Descending Chicago Center
09:20PM 41.7322 -87.6783 314° West 178 205 2,000 -720 Descending Chicago Center
09:21PM 41.7728 -87.6997 339° North 161 185 1,400 -480 Descending Chicago Center
09:22PM 41.8050 -87.7156 340° North 154 177 1,100 -300 Descending Chicago Center
09:23PM 41.7908 -87.7719 251° West 156 180 900 -240 Descending Chicago Center